sensor_id;sensor_type;location;lat;lon;timestamp;pressure;altitude;pressure_sealevel;temperature;humidity
42621;BME280;28252;53.336;-6.298;2023-02-11T00:00:09;102938.91;;;23.11;86.26
42621;BME280;28252;53.336;-6.298;2023-02-11T00:00:41;102935.19;;;23.12;86.34
42621;BME280;28252;53.336;-6.298;2023-02-11T00:01:32;102936.19;;;23.11;86.58
42621;BME280;28252;53.336;-6.298;2023-02-11T00:02:03;102938.91;;;23.11;86.28
42621;BME280;28252;53.336;-6.298;2023-02-11T00:02:39;102938.78;;;23.12;85.57
42621;BME280;28252;53.336;-6.298;2023-02-11T00:03:10;102936.91;;;23.13;85.78
42621;BME280;28252;53.336;-6.298;2023-02-11T00:03:49;102941.25;;;23.16;85.59
42621;BME280;28252;53.336;-6.298;2023-02-11T00:04:24;102939.50;;;23.15;85.66
42621;BME280;28252;53.336;-6.298;2023-02-11T00:04:55;102944.94;;;23.15;86.17
42621;BME280;28252;53.336;-6.298;2023-02-11T00:05:26;102944.09;;;23.14;85.87
42621;BME280;28252;53.336;-6.298;2023-02-11T00:06:00;102940.34;;;23.15;85.57
42621;BME280;28252;53.336;-6.298;2023-02-11T00:06:32;102946.69;;;23.16;84.96
42621;BME280;28252;53.336;-6.298;2023-02-11T00:07:05;102947.53;;;23.16;85.95
42621;BME280;28252;53.336;-6.298;2023-02-11T00:07:40;102947.53;;;23.16;85.46
42621;BME280;28252;53.336;-6.298;2023-02-11T00:08:16;102949.41;;;23.16;85.27
42621;BME280;28252;53.336;-6.298;2023-02-11T00:08:52;102952.13;;;23.16;85.42
42621;BME280;28252;53.336;-6.298;2023-02-11T00:09:28;102952.13;;;23.16;84.73
42621;BME280;28252;53.336;-6.298;2023-02-11T00:10:02;102957.56;;;23.16;85.02
42621;BME280;28252;53.336;-6.298;2023-02-11T00:10:41;102959.25;;;23.17;84.74
42621;BME280;28252;53.336;-6.298;2023-02-11T00:11:16;102956.53;;;23.17;84.81
42621;BME280;28252;53.336;-6.298;2023-02-11T00:11:51;102957.38;;;23.17;84.36
42621;BME280;28252;53.336;-6.298;2023-02-11T00:12:22;102957.38;;;23.17;84.51
42621;BME280;28252;53.336;-6.298;2023-02-11T00:12:55;102955.69;;;23.16;84.45
42621;BME280;28252;53.336;-6.298;2023-02-11T00:13:28;102963.84;;;23.16;84.44
42621;BME280;28252;53.336;-6.298;2023-02-11T00:14:04;102962.81;;;23.17;84.37
42621;BME280;28252;53.336;-6.298;2023-02-11T00:14:40;102952.13;;;23.16;84.46
42621;BME280;28252;53.336;-6.298;2023-02-11T00:15:15;102952.97;;;23.16;84.88
42621;BME280;28252;53.336;-6.298;2023-02-11T00:15:50;102951.22;;;23.15;84.75
42621;BME280;28252;53.336;-6.298;2023-02-11T00:16:24;102948.50;;;23.15;84.37
42621;BME280;28252;53.336;-6.298;2023-02-11T00:16:55;102946.81;;;23.14;84.55
42621;BME280;28252;53.336;-6.298;2023-02-11T00:17:28;102949.53;;;23.14;84.73
42621;BME280;28252;53.336;-6.298;2023-02-11T00:18:01;102946.06;;;23.12;86.62
42621;BME280;28252;53.336;-6.298;2023-02-11T00:18:37;102950.06;;;23.08;87.53
42621;BME280;28252;53.336;-6.298;2023-02-11T00:19:10;102946.63;;;23.06;87.16
42621;BME280;28252;53.336;-6.298;2023-02-11T00:19:41;102940.25;;;23.05;86.69
42621;BME280;28252;53.336;-6.298;2023-02-11T00:20:12;102947.69;;;23.03;81.50
42621;BME280;28252;53.336;-6.298;2023-02-11T00:20:43;102946.84;;;23.03;82.16
42621;BME280;28252;53.336;-6.298;2023-02-11T00:21:16;102942.53;;;23.00;81.93
42621;BME280;28252;53.336;-6.298;2023-02-11T00:21:47;102947.09;;;23.00;82.62
42621;BME280;28252;53.336;-6.298;2023-02-11T00:22:21;102941.81;;;22.98;81.97
42621;BME280;28252;53.336;-6.298;2023-02-11T00:22:52;102952.69;;;22.98;81.90
42621;BME280;28252;53.336;-6.298;2023-02-11T00:23:28;102946.53;;;22.96;81.69
42621;BME280;28252;53.336;-6.298;2023-02-11T00:24:05;102943.81;;;22.96;81.30
42621;BME280;28252;53.336;-6.298;2023-02-11T00:24:38;102943.81;;;22.96;81.42
42621;BME280;28252;53.336;-6.298;2023-02-11T00:25:09;102936.78;;;22.93;81.35
42621;BME280;28252;53.336;-6.298;2023-02-11T00:25:45;102944.94;;;22.93;81.45
42621;BME280;28252;53.336;-6.298;2023-02-11T00:26:25;102942.22;;;22.93;81.58
42621;BME280;28252;53.336;-6.298;2023-02-11T00:28:22;102944.19;;;22.91;81.95
42621;BME280;28252;53.336;-6.298;2023-02-11T00:28:53;102937.91;;;22.91;82.20
42621;BME280;28252;53.336;-6.298;2023-02-11T00:29:29;102943.47;;;22.89;80.92
42621;BME280;28252;53.336;-6.298;2023-02-11T00:30:03;102939.19;;;22.87;80.93
42621;BME280;28252;53.336;-6.298;2023-02-11T00:30:35;102934.72;;;22.86;81.30
42621;BME280;28252;53.336;-6.298;2023-02-11T00:31:11;102938.31;;;22.86;81.21
42621;BME280;28252;53.336;-6.298;2023-02-11T00:31:43;102934.72;;;22.86;81.14
42621;BME280;28252;53.336;-6.298;2023-02-11T00:32:17;102945.59;;;22.86;80.96
42621;BME280;28252;53.336;-6.298;2023-02-11T00:32:48;102931.16;;;22.85;81.15
42621;BME280;28252;53.336;-6.298;2023-02-11T00:33:23;102944.63;;;22.87;82.19
42621;BME280;28252;53.336;-6.298;2023-02-11T00:33:58;102936.47;;;22.87;81.41
42621;BME280;28252;53.336;-6.298;2023-02-11T00:34:32;102940.03;;;22.87;81.15
42621;BME280;28252;53.336;-6.298;2023-02-11T00:35:06;102933.63;;;22.88;81.04
42621;BME280;28252;53.336;-6.298;2023-02-11T00:35:37;102940.03;;;22.87;81.10
42621;BME280;28252;53.336;-6.298;2023-02-11T00:36:14;102935.47;;;22.88;80.80
42621;BME280;28252;53.336;-6.298;2023-02-11T00:36:50;102938.16;;;22.88;80.72
42621;BME280;28252;53.336;-6.298;2023-02-11T00:37:21;102934.47;;;22.89;80.08
42621;BME280;28252;53.336;-6.298;2023-02-11T00:37:59;102934.47;;;22.89;80.43
42621;BME280;28252;53.336;-6.298;2023-02-11T00:38:37;102928.19;;;22.88;80.41
42621;BME280;28252;53.336;-6.298;2023-02-11T00:39:12;102929.16;;;22.87;80.42
42621;BME280;28252;53.336;-6.298;2023-02-11T00:39:45;102937.31;;;22.87;80.16
42621;BME280;28252;53.336;-6.298;2023-02-11T00:40:19;102934.59;;;22.87;80.05
42621;BME280;28252;53.336;-6.298;2023-02-11T00:40:52;102937.31;;;22.87;80.17
42621;BME280;28252;53.336;-6.298;2023-02-11T00:41:24;102931.88;;;22.87;79.98
42621;BME280;28252;53.336;-6.298;2023-02-11T00:41:56;102934.59;;;22.87;79.92
42621;BME280;28252;53.336;-6.298;2023-02-11T00:42:32;102925.72;;;22.85;79.50
42621;BME280;28252;53.336;-6.298;2023-02-11T00:43:07;102930.16;;;22.86;79.78
42621;BME280;28252;53.336;-6.298;2023-02-11T00:43:42;102933.88;;;22.85;79.83
42621;BME280;28252;53.336;-6.298;2023-02-11T00:44:15;102928.44;;;22.85;79.83
42621;BME280;28252;53.336;-6.298;2023-02-11T00:44:54;102930.28;;;22.85;79.79
42621;BME280;28252;53.336;-6.298;2023-02-11T00:45:25;102931.44;;;22.82;80.70
42621;BME280;28252;53.336;-6.298;2023-02-11T00:46:00;102933.28;;;22.82;80.86
42621;BME280;28252;53.336;-6.298;2023-02-11T00:46:33;102929.69;;;22.81;80.60
42621;BME280;28252;53.336;-6.298;2023-02-11T00:47:12;102931.56;;;22.81;80.68
42621;BME280;28252;53.336;-6.298;2023-02-11T00:47:43;102930.56;;;22.82;80.81
42621;BME280;28252;53.336;-6.298;2023-02-11T00:48:16;102925.28;;;22.80;81.06
42621;BME280;28252;53.336;-6.298;2023-02-11T00:48:52;102928.38;;;22.75;81.35
42621;BME280;28252;53.336;-6.298;2023-02-11T00:49:29;102922.94;;;22.75;81.48
42621;BME280;28252;53.336;-6.298;2023-02-11T00:50:05;102923.78;;;22.76;81.60
42621;BME280;28252;53.336;-6.298;2023-02-11T00:50:38;102923.78;;;22.76;81.76
42621;BME280;28252;53.336;-6.298;2023-02-11T00:51:09;102923.94;;;22.74;81.69
42621;BME280;28252;53.336;-6.298;2023-02-11T00:51:42;102929.38;;;22.74;81.41
42621;BME280;28252;53.336;-6.298;2023-02-11T00:52:15;102922.09;;;22.75;81.39
42621;BME280;28252;53.336;-6.298;2023-02-11T00:52:48;102927.53;;;22.75;81.47
42621;BME280;28252;53.336;-6.298;2023-02-11T00:53:24;102933.94;;;22.74;81.49
42621;BME280;28252;53.336;-6.298;2023-02-11T00:53:55;102930.38;;;22.73;81.43
42621;BME280;28252;53.336;-6.298;2023-02-11T00:54:28;102928.50;;;22.74;81.69
42621;BME280;28252;53.336;-6.298;2023-02-11T00:55:02;102932.22;;;22.73;81.52
42621;BME280;28252;53.336;-6.298;2023-02-11T00:55:40;102930.38;;;22.73;81.19
42621;BME280;28252;53.336;-6.298;2023-02-11T00:56:16;102928.63;;;22.72;81.46
42621;BME280;28252;53.336;-6.298;2023-02-11T00:56:52;102924.06;;;22.73;81.62
42621;BME280;28252;53.336;-6.298;2023-02-11T00:57:23;102929.50;;;22.73;81.51
42621;BME280;28252;53.336;-6.298;2023-02-11T00:57:56;102930.50;;;22.72;81.93
42621;BME280;28252;53.336;-6.298;2023-02-11T00:58:31;102933.22;;;22.72;81.64
42621;BME280;28252;53.336;-6.298;2023-02-11T00:59:09;102931.50;;;22.71;81.70
42621;BME280;28252;53.336;-6.298;2023-02-11T00:59:45;102934.19;;;22.71;81.51
42621;BME280;28252;53.336;-6.298;2023-02-11T01:00:20;102937.94;;;22.70;81.64
42621;BME280;28252;53.336;-6.298;2023-02-11T01:00:54;102942.34;;;22.71;81.59
42621;BME280;28252;53.336;-6.298;2023-02-11T01:01:33;102943.38;;;22.70;81.90
42621;BME280;28252;53.336;-6.298;2023-02-11T01:02:04;102939.75;;;22.69;82.72
42621;BME280;28252;53.336;-6.298;2023-02-11T01:02:40;102938.91;;;22.69;82.19
42621;BME280;28252;53.336;-6.298;2023-02-11T01:03:11;102938.06;;;22.68;82.32
42621;BME280;28252;53.336;-6.298;2023-02-11T01:03:46;102939.91;;;22.68;82.38
42621;BME280;28252;53.336;-6.298;2023-02-11T01:04:24;102940.91;;;22.67;82.54
42621;BME280;28252;53.336;-6.298;2023-02-11T01:05:01;102940.91;;;22.67;82.81
42621;BME280;28252;53.336;-6.298;2023-02-11T01:05:34;102950.03;;;22.66;82.73
42621;BME280;28252;53.336;-6.298;2023-02-11T01:06:07;102939.16;;;22.66;82.70
42621;BME280;28252;53.336;-6.298;2023-02-11T01:06:44;102945.63;;;22.65;82.70
42621;BME280;28252;53.336;-6.298;2023-02-11T01:07:17;102948.34;;;22.65;82.52
42621;BME280;28252;53.336;-6.298;2023-02-11T01:07:50;102942.91;;;22.65;82.80
42621;BME280;28252;53.336;-6.298;2023-02-11T01:08:24;102944.75;;;22.64;82.75
42621;BME280;28252;53.336;-6.298;2023-02-11T01:08:55;102949.31;;;22.64;82.87
42621;BME280;28252;53.336;-6.298;2023-02-11T01:09:26;102945.75;;;22.63;82.39
42621;BME280;28252;53.336;-6.298;2023-02-11T01:10:02;102944.00;;;22.62;82.88
42621;BME280;28252;53.336;-6.298;2023-02-11T01:10:35;102944.00;;;22.62;83.05
42621;BME280;28252;53.336;-6.298;2023-02-11T01:11:13;102942.31;;;22.61;83.28
42621;BME280;28252;53.336;-6.298;2023-02-11T01:11:48;102936.00;;;22.61;82.97
42621;BME280;28252;53.336;-6.298;2023-02-11T01:12:20;102942.31;;;22.61;82.92
42621;BME280;28252;53.336;-6.298;2023-02-11T01:12:53;102944.13;;;22.61;82.72
42621;BME280;28252;53.336;-6.298;2023-02-11T01:13:30;102940.69;;;22.59;83.00
42621;BME280;28252;53.336;-6.298;2023-02-11T01:14:04;102938.84;;;22.59;83.13
42621;BME280;28252;53.336;-6.298;2023-02-11T01:14:40;102942.56;;;22.58;83.23
42621;BME280;28252;53.336;-6.298;2023-02-11T01:15:14;102941.69;;;22.57;83.15
42621;BME280;28252;53.336;-6.298;2023-02-11T01:15:47;102947.13;;;22.57;83.16
42621;BME280;28252;53.336;-6.298;2023-02-11T01:16:23;102944.41;;;22.57;83.19
42621;BME280;28252;53.336;-6.298;2023-02-11T01:16:59;102941.69;;;22.57;82.81
42621;BME280;28252;53.336;-6.298;2023-02-11T01:17:33;102950.84;;;22.56;83.24
42621;BME280;28252;53.336;-6.298;2023-02-11T01:18:04;102950.84;;;22.56;83.07
42621;BME280;28252;53.336;-6.298;2023-02-11T01:18:40;102944.56;;;22.56;83.35
42621;BME280;28252;53.336;-6.298;2023-02-11T01:19:16;102951.81;;;22.55;83.34
42621;BME280;28252;53.336;-6.298;2023-02-11T01:20:50;102949.22;;;22.54;83.39
42621;BME280;28252;53.336;-6.298;2023-02-11T01:21:24;102954.66;;;22.54;83.28
42621;BME280;28252;53.336;-6.298;2023-02-11T01:21:55;102955.69;;;22.53;83.08
42621;BME280;28252;53.336;-6.298;2023-02-11T01:22:29;102949.38;;;22.52;83.08
42621;BME280;28252;53.336;-6.298;2023-02-11T01:23:04;102952.06;;;22.52;83.56
42621;BME280;28252;53.336;-6.298;2023-02-11T01:23:37;102954.78;;;22.52;83.37
42621;BME280;28252;53.336;-6.298;2023-02-11T01:24:15;102947.66;;;22.51;83.04
42621;BME280;28252;53.336;-6.298;2023-02-11T01:24:48;102949.53;;;22.51;83.12
42621;BME280;28252;53.336;-6.298;2023-02-11T01:25:21;102953.09;;;22.51;83.35
42621;BME280;28252;53.336;-6.298;2023-02-11T01:25:52;102948.63;;;22.50;83.46
42621;BME280;28252;53.336;-6.298;2023-02-11T01:26:25;102949.53;;;22.51;83.35
42621;BME280;28252;53.336;-6.298;2023-02-11T01:27:01;102951.34;;;22.50;83.42
42621;BME280;28252;53.336;-6.298;2023-02-11T01:27:34;102951.47;;;22.49;83.54
42621;BME280;28252;53.336;-6.298;2023-02-11T01:28:06;102957.78;;;22.49;83.85
42621;BME280;28252;53.336;-6.298;2023-02-11T01:28:39;102953.34;;;22.48;83.71
42621;BME280;28252;53.336;-6.298;2023-02-11T01:29:13;102954.19;;;22.49;83.72
42621;BME280;28252;53.336;-6.298;2023-02-11T01:29:47;102953.34;;;22.48;83.41
42621;BME280;28252;53.336;-6.298;2023-02-11T01:30:20;102949.78;;;22.48;83.41
42621;BME280;28252;53.336;-6.298;2023-02-11T01:30:55;102945.31;;;22.47;83.92
42621;BME280;28252;53.336;-6.298;2023-02-11T01:31:26;102948.91;;;22.47;83.37
42621;BME280;28252;53.336;-6.298;2023-02-11T01:31:58;102941.75;;;22.46;83.75
42621;BME280;28252;53.336;-6.298;2023-02-11T01:32:29;102943.59;;;22.46;83.86
42621;BME280;28252;53.336;-6.298;2023-02-11T01:33:00;102936.47;;;22.45;83.71
42621;BME280;28252;53.336;-6.298;2023-02-11T01:33:36;102936.47;;;22.45;83.75
42621;BME280;28252;53.336;-6.298;2023-02-11T01:34:10;102941.03;;;22.44;83.88
42621;BME280;28252;53.336;-6.298;2023-02-11T01:34:41;102942.00;;;22.43;83.42
42621;BME280;28252;53.336;-6.298;2023-02-11T01:35:12;102946.47;;;22.44;83.93
42621;BME280;28252;53.336;-6.298;2023-02-11T01:35:43;102942.00;;;22.43;83.91
42621;BME280;28252;53.336;-6.298;2023-02-11T01:37:13;102938.44;;;22.43;83.58
42621;BME280;28252;53.336;-6.298;2023-02-11T01:37:46;102943.00;;;22.42;83.75
42621;BME280;28252;53.336;-6.298;2023-02-11T01:38:22;102931.28;;;22.42;83.99
42621;BME280;28252;53.336;-6.298;2023-02-11T01:38:58;102936.84;;;22.40;84.15
42621;BME280;28252;53.336;-6.298;2023-02-11T01:39:33;102934.13;;;22.40;83.67
42621;BME280;28252;53.336;-6.298;2023-02-11T01:40:09;102931.41;;;22.40;83.63
42621;BME280;28252;53.336;-6.298;2023-02-11T01:40:49;102932.41;;;22.39;83.87
42621;BME280;28252;53.336;-6.298;2023-02-11T01:41:21;102925.25;;;22.38;83.77
42621;BME280;28252;53.336;-6.298;2023-02-11T01:41:54;102930.69;;;22.38;83.91
42621;BME280;28252;53.336;-6.298;2023-02-11T01:42:25;102930.69;;;22.38;84.00
42621;BME280;28252;53.336;-6.298;2023-02-11T01:42:56;102923.53;;;22.37;83.94
42621;BME280;28252;53.336;-6.298;2023-02-11T01:43:32;102921.81;;;22.36;83.75
42621;BME280;28252;53.336;-6.298;2023-02-11T01:44:22;102917.25;;;22.36;84.13
42621;BME280;28252;53.336;-6.298;2023-02-11T01:44:54;102916.38;;;22.36;83.78
42621;BME280;28252;53.336;-6.298;2023-02-11T01:45:41;102919.09;;;22.36;83.85
42621;BME280;28252;53.336;-6.298;2023-02-11T01:46:20;102923.81;;;22.34;83.82
42621;BME280;28252;53.336;-6.298;2023-02-11T01:46:55;102912.94;;;22.34;83.95
42621;BME280;28252;53.336;-6.298;2023-02-11T01:47:29;102912.94;;;22.34;84.16
42621;BME280;28252;53.336;-6.298;2023-02-11T01:48:05;102917.50;;;22.33;83.82
42621;BME280;28252;53.336;-6.298;2023-02-11T01:48:43;102911.22;;;22.33;84.27
42621;BME280;28252;53.336;-6.298;2023-02-11T01:49:16;102913.94;;;22.33;83.72
42621;BME280;28252;53.336;-6.298;2023-02-11T01:49:56;102913.94;;;22.33;84.36
42621;BME280;28252;53.336;-6.298;2023-02-11T01:52:40;102908.75;;;22.30;84.58
42621;BME280;28252;53.336;-6.298;2023-02-11T01:53:12;102904.34;;;22.29;84.26
42621;BME280;28252;53.336;-6.298;2023-02-11T01:54:03;102909.75;;;22.29;84.53
42621;BME280;28252;53.336;-6.298;2023-02-11T01:55:13;102908.03;;;22.28;84.37
42621;BME280;28252;53.336;-6.298;2023-02-11T01:56:03;102906.25;;;22.27;84.76
42621;BME280;28252;53.336;-6.298;2023-02-11T01:57:11;102907.28;;;22.26;84.58
42621;BME280;28252;53.336;-6.298;2023-02-11T01:57:55;102902.81;;;22.25;84.58
42621;BME280;28252;53.336;-6.298;2023-02-11T01:58:27;102905.53;;;22.25;84.61
42621;BME280;28252;53.336;-6.298;2023-02-11T01:59:00;102911.97;;;22.24;84.57
42621;BME280;28252;53.336;-6.298;2023-02-11T02:01:01;102906.66;;;22.22;84.68
42621;BME280;28252;53.336;-6.298;2023-02-11T02:01:34;102903.06;;;22.22;84.85
42621;BME280;28252;53.336;-6.298;2023-02-11T02:02:11;102900.34;;;22.22;84.97
42621;BME280;28252;53.336;-6.298;2023-02-11T02:03:17;102906.81;;;22.20;84.81
42621;BME280;28252;53.336;-6.298;2023-02-11T02:03:57;102906.81;;;22.20;85.10
42621;BME280;28252;53.336;-6.298;2023-02-11T02:04:30;102902.34;;;22.19;84.64
42621;BME280;28252;53.336;-6.298;2023-02-11T02:05:13;102903.19;;;22.20;84.90
42621;BME280;28252;53.336;-6.298;2023-02-11T02:06:04;102908.63;;;22.20;85.08
42621;BME280;28252;53.336;-6.298;2023-02-11T02:06:45;102907.78;;;22.19;84.99
42621;BME280;28252;53.336;-6.298;2023-02-11T02:07:23;102908.75;;;22.18;85.13
42621;BME280;28252;53.336;-6.298;2023-02-11T02:08:15;102905.19;;;22.18;85.00
42621;BME280;28252;53.336;-6.298;2023-02-11T02:08:52;102905.19;;;22.18;85.34
42621;BME280;28252;53.336;-6.298;2023-02-11T02:09:28;102907.06;;;22.17;85.38
42621;BME280;28252;53.336;-6.298;2023-02-11T02:10:06;102906.19;;;22.17;85.51
42621;BME280;28252;53.336;-6.298;2023-02-11T02:10:44;102899.88;;;22.16;85.19
42621;BME280;28252;53.336;-6.298;2023-02-11T02:11:18;102897.31;;;22.15;85.48
42621;BME280;28252;53.336;-6.298;2023-02-11T02:11:49;102910.75;;;22.16;85.64
42621;BME280;28252;53.336;-6.298;2023-02-11T02:12:20;102902.72;;;22.15;85.35
42621;BME280;28252;53.336;-6.298;2023-02-11T02:12:53;102905.44;;;22.15;85.84
42621;BME280;28252;53.336;-6.298;2023-02-11T02:13:27;102907.31;;;22.14;85.69
42621;BME280;28252;53.336;-6.298;2023-02-11T02:14:02;102899.28;;;22.13;86.00
42621;BME280;28252;53.336;-6.298;2023-02-11T02:14:39;102903.88;;;22.12;85.51
42621;BME280;28252;53.336;-6.298;2023-02-11T02:15:59;102902.00;;;22.13;86.05
42621;BME280;28252;53.336;-6.298;2023-02-11T02:16:36;102891.28;;;22.11;85.83
42621;BME280;28252;53.336;-6.298;2023-02-11T02:17:11;102896.69;;;22.11;85.85
42621;BME280;28252;53.336;-6.298;2023-02-11T02:17:57;102897.72;;;22.10;85.75
42621;BME280;28252;53.336;-6.298;2023-02-11T02:19:23;102895.00;;;22.10;85.80
42621;BME280;28252;53.336;-6.298;2023-02-11T02:22:40;102888.81;;;22.08;85.86
42621;BME280;28252;53.336;-6.298;2023-02-11T02:25:25;102883.53;;;22.07;85.86
42621;BME280;28252;53.336;-6.298;2023-02-11T02:28:36;102885.50;;;22.05;86.24
42621;BME280;28252;53.336;-6.298;2023-02-11T02:30:06;102888.34;;;22.03;86.22
42621;BME280;28252;53.336;-6.298;2023-02-11T02:32:42;102895.75;;;22.01;86.40
42621;BME280;28252;53.336;-6.298;2023-02-11T02:34:29;102890.47;;;21.99;85.99
42621;BME280;28252;53.336;-6.298;2023-02-11T02:36:33;102900.47;;;21.99;86.28
42621;BME280;28252;53.336;-6.298;2023-02-11T02:37:11;102900.59;;;21.97;86.28
42621;BME280;28252;53.336;-6.298;2023-02-11T02:37:58;102893.44;;;21.96;86.46
42621;BME280;28252;53.336;-6.298;2023-02-11T02:38:38;102903.41;;;21.96;86.64
42621;BME280;28252;53.336;-6.298;2023-02-11T02:39:13;102903.41;;;21.96;86.43
42621;BME280;28252;53.336;-6.298;2023-02-11T02:39:52;102896.28;;;21.95;86.62
42621;BME280;28252;53.336;-6.298;2023-02-11T02:40:32;102900.72;;;21.96;86.52
42621;BME280;28252;53.336;-6.298;2023-02-11T02:41:08;102899.97;;;21.94;86.99
42621;BME280;28252;53.336;-6.298;2023-02-11T02:41:45;102898.13;;;21.94;86.70
42621;BME280;28252;53.336;-6.298;2023-02-11T02:43:22;102900.97;;;21.93;86.59
42621;BME280;28252;53.336;-6.298;2023-02-11T02:43:55;102896.53;;;21.92;87.02
42621;BME280;28252;53.336;-6.298;2023-02-11T02:44:26;102900.22;;;21.91;86.71
42621;BME280;28252;53.336;-6.298;2023-02-11T02:44:59;102889.38;;;21.91;86.63
42621;BME280;28252;53.336;-6.298;2023-02-11T02:45:33;102903.94;;;21.90;86.89
42621;BME280;28252;53.336;-6.298;2023-02-11T02:46:11;102904.81;;;21.90;87.30
42621;BME280;28252;53.336;-6.298;2023-02-11T02:46:47;102897.66;;;21.89;86.77
42621;BME280;28252;53.336;-6.298;2023-02-11T02:47:18;102896.78;;;21.89;86.93
42621;BME280;28252;53.336;-6.298;2023-02-11T02:47:49;102896.78;;;21.89;86.80
42621;BME280;28252;53.336;-6.298;2023-02-11T02:48:30;102895.94;;;21.88;87.17
42621;BME280;28252;53.336;-6.298;2023-02-11T02:49:05;102902.22;;;21.89;87.14
42621;BME280;28252;53.336;-6.298;2023-02-11T02:49:44;102899.50;;;21.89;86.90
42621;BME280;28252;53.336;-6.298;2023-02-11T02:50:19;102895.06;;;21.88;87.09
42621;BME280;28252;53.336;-6.298;2023-02-11T02:51:12;102900.47;;;21.88;86.82
42621;BME280;28252;53.336;-6.298;2023-02-11T02:53:31;102903.31;;;21.86;87.61
42621;BME280;28252;53.336;-6.298;2023-02-11T02:55:21;102900.75;;;21.85;87.27
42621;BME280;28252;53.336;-6.298;2023-02-11T02:56:43;102900.88;;;21.83;87.87
42621;BME280;28252;53.336;-6.298;2023-02-11T02:58:03;102901.88;;;21.82;88.06
42621;BME280;28252;53.336;-6.298;2023-02-11T03:00:13;102894.69;;;21.81;88.25
42621;BME280;28252;53.336;-6.298;2023-02-11T03:02:49;102888.56;;;21.79;88.08
42621;BME280;28252;53.336;-6.298;2023-02-11T03:03:42;102885.84;;;21.79;87.77
42621;BME280;28252;53.336;-6.298;2023-02-11T03:04:33;102884.97;;;21.78;88.29
42621;BME280;28252;53.336;-6.298;2023-02-11T03:05:25;102884.97;;;21.78;88.12
42621;BME280;28252;53.336;-6.298;2023-02-11T03:06:14;102888.69;;;21.77;88.22
42621;BME280;28252;53.336;-6.298;2023-02-11T03:07:35;102886.97;;;21.76;88.02
42621;BME280;28252;53.336;-6.298;2023-02-11T03:10:07;102883.53;;;21.74;88.31
42621;BME280;28252;53.336;-6.298;2023-02-11T03:10:42;102876.25;;;21.75;88.26
42621;BME280;28252;53.336;-6.298;2023-02-11T03:11:18;102875.41;;;21.74;88.76
42621;BME280;28252;53.336;-6.298;2023-02-11T03:11:53;102875.41;;;21.74;88.46
42621;BME280;28252;53.336;-6.298;2023-02-11T03:12:27;102875.41;;;21.74;88.60
42621;BME280;28252;53.336;-6.298;2023-02-11T03:13:02;102870.94;;;21.73;88.83
42621;BME280;28252;53.336;-6.298;2023-02-11T03:13:40;102871.81;;;21.74;88.55
42621;BME280;28252;53.336;-6.298;2023-02-11T03:14:16;102870.94;;;21.73;88.51
42621;BME280;28252;53.336;-6.298;2023-02-11T03:14:53;102871.94;;;21.72;88.02
42621;BME280;28252;53.336;-6.298;2023-02-11T03:15:25;102869.22;;;21.72;88.12
42621;BME280;28252;53.336;-6.298;2023-02-11T03:15:57;102867.50;;;21.71;88.67
42621;BME280;28252;53.336;-6.298;2023-02-11T03:16:36;102876.63;;;21.70;88.66
42621;BME280;28252;53.336;-6.298;2023-02-11T03:17:11;102865.78;;;21.70;88.60
42621;BME280;28252;53.336;-6.298;2023-02-11T03:17:50;102871.19;;;21.70;88.41
42621;BME280;28252;53.336;-6.298;2023-02-11T03:18:26;102873.06;;;21.70;88.84
42621;BME280;28252;53.336;-6.298;2023-02-11T03:20:03;102868.59;;;21.69;88.94
42621;BME280;28252;53.336;-6.298;2023-02-11T03:20:39;102867.75;;;21.68;89.06
42621;BME280;28252;53.336;-6.298;2023-02-11T03:21:11;102866.03;;;21.67;88.98
42621;BME280;28252;53.336;-6.298;2023-02-11T03:21:58;102878.59;;;21.68;89.02
42621;BME280;28252;53.336;-6.298;2023-02-11T03:22:45;102865.03;;;21.68;88.59
42621;BME280;28252;53.336;-6.298;2023-02-11T03:24:11;102866.03;;;21.67;88.83
42621;BME280;28252;53.336;-6.298;2023-02-11T03:24:46;102860.59;;;21.67;88.99
42621;BME280;28252;53.336;-6.298;2023-02-11T03:25:25;102864.31;;;21.66;88.86
42621;BME280;28252;53.336;-6.298;2023-02-11T03:26:39;102858.91;;;21.66;88.60
42621;BME280;28252;53.336;-6.298;2023-02-11T03:27:24;102861.59;;;21.66;89.00
42621;BME280;28252;53.336;-6.298;2023-02-11T03:28:02;102862.56;;;21.65;89.37
42621;BME280;28252;53.336;-6.298;2023-02-11T03:28:50;102859.88;;;21.65;88.82
42621;BME280;28252;53.336;-6.298;2023-02-11T03:30:34;102863.59;;;21.64;88.96
42621;BME280;28252;53.336;-6.298;2023-02-11T03:32:39;102864.56;;;21.63;89.41
42621;BME280;28252;53.336;-6.298;2023-02-11T03:33:17;102868.25;;;21.62;89.01
42621;BME280;28252;53.336;-6.298;2023-02-11T03:35:55;102861.25;;;21.59;89.52
42621;BME280;28252;53.336;-6.298;2023-02-11T03:36:32;102857.66;;;21.59;89.42
42621;BME280;28252;53.336;-6.298;2023-02-11T03:37:13;102862.09;;;21.60;89.37
42621;BME280;28252;53.336;-6.298;2023-02-11T03:37:50;102857.66;;;21.59;90.02
42621;BME280;28252;53.336;-6.298;2023-02-11T03:38:28;102853.25;;;21.58;89.85
42621;BME280;28252;53.336;-6.298;2023-02-11T03:39:08;102863.06;;;21.59;89.57
42621;BME280;28252;53.336;-6.298;2023-02-11T03:39:45;102861.38;;;21.58;89.44
42621;BME280;28252;53.336;-6.298;2023-02-11T03:40:38;102866.78;;;21.58;89.86
42621;BME280;28252;53.336;-6.298;2023-02-11T03:41:16;102861.38;;;21.58;89.48
42621;BME280;28252;53.336;-6.298;2023-02-11T03:42:34;102862.34;;;21.57;89.67
42621;BME280;28252;53.336;-6.298;2023-02-11T03:43:19;102859.63;;;21.57;90.31
42621;BME280;28252;53.336;-6.298;2023-02-11T03:43:57;102867.78;;;21.57;89.35
42621;BME280;28252;53.336;-6.298;2023-02-11T03:44:31;102861.50;;;21.56;89.69
42621;BME280;28252;53.336;-6.298;2023-02-11T03:45:06;102854.22;;;21.57;90.04
42621;BME280;28252;53.336;-6.298;2023-02-11T03:45:38;102862.34;;;21.57;90.03
42621;BME280;28252;53.336;-6.298;2023-02-11T03:46:13;102863.34;;;21.56;89.68
42621;BME280;28252;53.336;-6.298;2023-02-11T03:46:49;102866.06;;;21.56;89.76